createdAt,value
2023-11-29T13:54:40.829Z,4.40
2023-11-29T13:59:28.287Z,8.90
2023-11-29T14:01:56.230Z,9.20
2023-11-29T14:04:24.586Z,9.40
2023-11-29T14:06:54.968Z,9.00
2023-11-29T14:09:22.817Z,10.60
2023-11-29T14:11:52.520Z,9.90
2023-11-29T14:14:22.129Z,10.00
2023-11-29T14:16:50.030Z,9.30
2023-11-29T14:19:17.964Z,9.70
2023-11-29T14:21:46.085Z,8.70
2023-11-29T14:24:13.863Z,8.30
2023-11-29T14:26:42.207Z,8.10
2023-11-29T14:29:10.301Z,8.50
2023-11-29T14:31:39.424Z,8.80
2023-11-29T14:36:45.284Z,8.70
2023-11-29T14:39:15.490Z,8.80
2023-11-29T14:41:46.841Z,8.00
2023-11-29T14:44:15.629Z,8.80
2023-11-29T14:46:44.014Z,10.10
2023-11-29T14:49:16.764Z,9.20
2023-11-29T14:51:51.515Z,9.10
2023-11-29T15:08:55.134Z,12.30
2023-11-29T15:11:23.109Z,11.00
2023-11-29T15:13:51.565Z,11.00
2023-11-29T15:16:19.494Z,10.60
2023-11-29T15:18:47.973Z,10.40
2023-11-29T15:21:15.998Z,10.00
2023-11-29T15:23:44.089Z,9.50
2023-11-29T15:26:12.068Z,10.50
2023-11-29T15:28:40.163Z,11.00
2023-11-29T15:31:08.016Z,10.00
2023-11-29T15:33:36.241Z,11.00
2023-11-29T15:36:04.562Z,9.70
2023-11-29T15:38:32.640Z,10.70
2023-11-29T15:41:00.532Z,9.50
2023-11-29T15:43:28.527Z,9.80
2023-11-29T15:45:56.411Z,9.30
2023-11-29T15:48:24.806Z,10.40
2023-11-29T15:50:52.815Z,9.50
2023-11-29T15:53:20.743Z,10.80
2023-11-29T15:55:50.434Z,9.90
2023-11-29T15:58:18.477Z,10.60
2023-11-29T16:00:46.663Z,9.90
2023-11-29T16:03:14.627Z,9.90
2023-11-29T16:05:44.467Z,9.90
2023-11-29T16:08:12.495Z,9.00
2023-11-29T16:10:40.586Z,9.90
2023-11-29T16:13:08.881Z,11.00
2023-11-29T16:15:36.719Z,10.50
2023-11-29T16:18:04.633Z,10.30
2023-11-29T16:20:37.246Z,10.10
2023-11-29T16:23:05.637Z,10.40
2023-11-29T16:25:33.475Z,10.90
2023-11-29T16:28:01.671Z,10.50
2023-11-29T16:30:29.590Z,11.20
2023-11-29T16:32:57.603Z,10.70
2023-11-29T16:35:25.856Z,10.80
2023-11-29T16:37:53.985Z,12.00
2023-11-29T16:40:22.455Z,11.60
2023-11-29T16:42:50.483Z,10.30
2023-11-29T16:45:18.536Z,10.60
2023-11-29T16:47:46.694Z,10.90
2023-11-29T16:50:14.727Z,11.30
2023-11-29T16:52:44.309Z,12.40
2023-11-29T16:55:13.562Z,11.40
2023-11-29T17:00:09.789Z,9.10
2023-11-29T17:02:37.985Z,10.00
2023-11-29T17:05:09.393Z,11.50
2023-11-29T17:07:37.619Z,10.40
2023-11-29T17:10:06.132Z,11.40
2023-11-29T17:12:35.282Z,11.80
2023-11-29T17:15:03.423Z,10.60
2023-11-29T17:17:31.557Z,10.40
2023-11-29T17:20:00.418Z,10.90
2023-11-29T17:22:28.538Z,11.30
2023-11-29T17:24:56.634Z,11.40
2023-11-29T17:27:24.630Z,12.30
2023-11-29T17:29:52.496Z,11.80
2023-11-29T17:32:20.333Z,12.40
2023-11-29T17:34:48.860Z,11.60
2023-11-29T17:37:16.713Z,10.90
2023-11-29T17:39:44.743Z,11.90
2023-11-29T17:42:17.079Z,13.10
2023-11-29T17:44:45.375Z,11.20
2023-11-29T17:47:13.515Z,12.40
2023-11-29T17:49:41.350Z,11.60
2023-11-29T17:52:10.468Z,11.70
2023-11-29T17:54:38.459Z,11.60
2023-11-29T17:57:06.436Z,14.10
2023-11-29T17:59:34.521Z,12.10
2023-11-29T18:02:03.047Z,11.70
2023-11-29T18:04:30.971Z,11.30
2023-11-29T18:06:58.801Z,12.40
2023-11-29T18:09:27.340Z,12.50
2023-11-29T18:11:55.719Z,11.70
2023-11-29T18:14:23.682Z,11.30
2023-11-29T18:16:51.663Z,11.40
2023-11-29T18:19:19.537Z,12.10
2023-11-29T18:21:47.857Z,12.50
2023-11-29T18:24:15.826Z,12.90
2023-11-29T18:26:46.745Z,13.20
2023-11-29T18:29:14.888Z,11.70
2023-11-29T18:31:43.486Z,12.90
2023-11-29T18:34:14.346Z,12.10
2023-11-29T18:36:43.038Z,12.60
2023-11-29T18:39:11.353Z,11.10
2023-11-29T18:41:39.916Z,12.90
2023-11-29T18:46:41.060Z,11.60
2023-11-29T18:49:08.919Z,12.10
2023-11-29T18:51:36.937Z,11.30
2023-11-29T18:54:04.758Z,12.40
2023-11-29T18:56:32.896Z,12.50
2023-11-29T18:59:00.955Z,11.80
2023-11-29T19:01:28.891Z,12.10
2023-11-29T19:03:57.050Z,12.10
2023-11-29T19:06:25.100Z,12.50
2023-11-29T19:08:53.113Z,12.80
2023-11-29T19:11:21.619Z,13.90
2023-11-29T19:13:49.718Z,11.20
2023-11-29T19:16:18.532Z,12.20
2023-11-29T19:18:46.907Z,11.90
2023-11-29T19:21:15.280Z,12.90
2023-11-29T19:23:46.301Z,13.70
2023-11-29T19:26:21.809Z,13.20
2023-11-29T19:28:49.694Z,14.40
2023-11-29T19:31:17.945Z,13.70
2023-11-29T19:33:47.621Z,16.20
2023-11-29T19:38:44.427Z,11.80
2023-11-29T19:41:12.283Z,14.00
2023-11-29T19:43:40.331Z,14.50
2023-11-29T19:46:08.910Z,13.10
2023-11-29T19:48:36.753Z,13.20
2023-11-29T19:51:04.889Z,13.20
2023-11-29T19:53:33.029Z,13.80
2023-11-29T19:56:00.822Z,12.70
2023-11-29T19:58:32.345Z,13.40
2023-11-29T20:01:01.128Z,18.20
2023-11-29T20:03:29.621Z,16.70
2023-11-29T20:05:58.209Z,14.90
2023-11-29T20:08:26.263Z,13.30
2023-11-29T20:10:57.893Z,12.60
2023-11-29T20:13:26.445Z,11.90
2023-11-29T20:15:54.606Z,12.40
2023-11-29T20:18:23.083Z,13.60
2023-11-29T20:21:01.263Z,12.80
2023-11-29T20:26:00.913Z,12.60
2023-11-29T20:30:56.988Z,10.50
2023-11-29T20:33:28.089Z,10.90
2023-11-29T20:35:56.181Z,11.70
2023-11-29T20:38:24.136Z,12.80
2023-11-29T20:40:52.899Z,12.50
2023-11-29T20:43:20.737Z,12.70
2023-11-29T20:45:48.953Z,12.20
2023-11-29T20:48:17.018Z,11.50
2023-11-29T20:50:45.962Z,11.90
2023-11-29T20:53:18.652Z,11.50
2023-11-29T20:55:49.149Z,13.20
2023-11-29T20:58:20.152Z,11.40
2023-11-29T21:00:48.084Z,11.60
2023-11-29T21:03:16.434Z,11.40
2023-11-29T21:05:44.482Z,12.00
2023-11-29T21:08:12.404Z,12.20
2023-11-29T21:10:40.270Z,11.50
2023-11-29T21:13:10.665Z,11.60
2023-11-29T21:15:41.161Z,12.90
2023-11-29T21:18:10.552Z,12.80
2023-11-29T21:20:41.088Z,12.40
2023-11-29T21:23:09.875Z,11.20
2023-11-29T21:25:37.976Z,12.50
2023-11-29T21:28:05.792Z,11.80
2023-11-29T21:30:33.661Z,11.20
2023-11-29T21:33:01.858Z,12.30
2023-11-29T21:35:31.559Z,11.70
2023-11-29T21:37:59.855Z,13.50
2023-11-29T21:40:28.130Z,12.00
2023-11-29T21:42:55.973Z,11.70
2023-11-29T21:45:23.860Z,11.20
2023-11-29T21:47:52.077Z,12.80
2023-11-29T21:50:20.143Z,11.60
2023-11-29T21:52:48.283Z,10.00
2023-11-29T21:55:16.370Z,12.40
2023-11-29T21:57:44.360Z,11.10
2023-11-29T22:00:12.612Z,10.50
2023-11-29T22:02:40.715Z,10.60
2023-11-29T22:05:08.874Z,11.30
2023-11-29T22:07:36.743Z,11.90
2023-11-29T22:10:04.852Z,11.00
2023-11-29T22:12:33.227Z,12.30
2023-11-29T22:15:01.208Z,11.20
2023-11-29T22:17:30.168Z,10.90
2023-11-29T22:19:58.612Z,11.30
2023-11-29T22:22:26.684Z,12.30
2023-11-29T22:24:54.489Z,11.00
2023-11-29T22:27:22.383Z,11.10
2023-11-29T22:29:50.365Z,11.20
2023-11-29T22:32:18.279Z,12.00
2023-11-29T22:34:46.185Z,12.40
2023-11-29T22:37:14.039Z,11.30
2023-11-29T22:39:42.130Z,11.50
2023-11-29T22:47:16.150Z,11.50
2023-11-29T22:49:44.415Z,14.30
2023-11-29T22:52:12.083Z,12.20
2023-11-29T22:57:12.826Z,13.40
2023-11-29T22:59:41.383Z,12.40
2023-11-29T23:02:09.444Z,12.60
2023-11-29T23:04:37.348Z,11.60
2023-11-29T23:07:06.725Z,12.40
2023-11-29T23:09:34.929Z,12.30
2023-11-29T23:12:03.569Z,13.40
2023-11-29T23:14:32.782Z,13.90
2023-11-29T23:17:00.806Z,13.80
2023-11-29T23:19:28.919Z,13.80
2023-11-29T23:21:56.792Z,14.80
2023-11-29T23:24:24.608Z,14.20
2023-11-29T23:26:52.497Z,13.80
2023-11-29T23:29:20.357Z,12.40
2023-11-29T23:31:48.562Z,12.00
2023-11-29T23:34:16.488Z,13.10
2023-11-29T23:36:44.680Z,14.40
2023-11-29T23:39:12.850Z,14.90
2023-11-29T23:41:40.789Z,15.50
2023-11-29T23:44:08.920Z,15.20
2023-11-29T23:46:36.857Z,14.80
2023-11-29T23:49:06.700Z,14.00
2023-11-29T23:51:34.675Z,13.50
2023-11-29T23:54:02.702Z,14.30
2023-11-29T23:56:30.826Z,13.30
2023-11-29T23:58:58.996Z,13.30
